Capilla del Monte, Argentina
Current Conditions -  °F | °C
As of 9:00 AM on Friday 31 Oct 2014 (Local Time) from SACO Reporting Station
Broken Clouds Broken Clouds  
Wind Chill: 64°   Ceiling: 3000
Heat Index: 64°   Visibility: 6mi
Dew Point: 57°   Wind: 10mph
Humidity: 77%   Direction: 180°S
Pressure: 30"   Gusts: NA
Location:  30.85°S, 64.52°W
Report Text: SACO 311200Z 18009KT 9999 FEW015 BKN03018/14 Q1016
Loading
Personal Weather Stations






























Interactive Weather Map
Tropical Storm Tracking
New forecast layout! Learn more

10-Day Weather Forecast

Advertisements
Track Severe Weather on mobile